Time;durP1;ratioP1;P1;durP2;ratioP2;P2;SDS_P1;SDS_P2;PMS_P1;PMS_P2;Temp;Humidity;BMP_temperature;BMP_pressure;BME280_temperature;BME280_humidity;BME280_pressure;Samples;Min_cycle;Max_cycle;Signal;HPM_P1;HPM_P2
2021/03/23 00:01:37;;;;;;;11.43;3.10;;;7.40;99.90;;;;;;5111573;28;20927;-69
2021/03/23 00:04:05;;;;;;;10.40;3.37;;;7.40;99.90;;;;;;5110965;28;20524;-69
2021/03/23 00:06:31;;;;;;;8.93;2.93;;;7.40;99.90;;;;;;5106335;28;20451;-69
2021/03/23 00:09:00;;;;;;;10.27;3.13;;;7.40;99.90;;;;;;5107727;28;20961;-70
2021/03/23 00:11:29;;;;;;;9.50;3.10;;;7.30;99.90;;;;;;5110655;28;20445;-69
2021/03/23 00:13:58;;;;;;;10.43;3.83;;;7.30;99.90;;;;;;5101489;28;20540;-68
2021/03/23 00:16:28;;;;;;;9.17;3.20;;;7.30;99.90;;;;;;5099973;28;20928;-69
2021/03/23 00:18:54;;;;;;;10.03;3.13;;;7.30;99.90;;;;;;5107089;28;20849;-70
2021/03/23 00:21:22;;;;;;;12.07;3.20;;;7.30;99.90;;;;;;5106204;27;20482;-69
2021/03/23 00:23:48;;;;;;;11.10;4.13;;;7.30;99.90;;;;;;5109123;27;20555;-70
2021/03/23 00:26:17;;;;;;;10.50;2.87;;;7.30;99.90;;;;;;5110587;28;20456;-69
2021/03/23 00:28:47;;;;;;;10.80;3.53;;;7.30;99.90;;;;;;5112047;28;20507;-70
2021/03/23 00:31:13;;;;;;;10.20;3.60;;;7.30;99.90;;;;;;5100947;28;20453;-70
2021/03/23 00:33:41;;;;;;;9.63;2.87;;;7.30;99.90;;;;;;5108349;28;20485;-70
2021/03/23 00:36:08;;;;;;;12.50;2.90;;;7.20;99.90;;;;;;5118692;27;20481;-69
2021/03/23 00:38:36;;;;;;;10.77;3.10;;;7.30;99.90;;;;;;5109177;28;20445;-69
2021/03/23 00:41:02;;;;;;;8.63;2.93;;;7.30;99.90;;;;;;5115079;28;20473;-69
2021/03/23 00:43:29;;;;;;;9.37;2.67;;;7.30;99.90;;;;;;5106979;28;20817;-70
2021/03/23 00:45:55;;;;;;;9.10;3.00;;;7.30;99.90;;;;;;5098691;28;20974;-69
2021/03/23 00:48:22;;;;;;;11.23;3.43;;;7.30;99.90;;;;;;5114126;28;20453;-69
2021/03/23 00:50:49;;;;;;;10.93;2.97;;;7.30;99.90;;;;;;5113663;28;20474;-69
2021/03/23 00:53:16;;;;;;;13.00;3.70;;;7.30;99.90;;;;;;5114341;28;20452;-70
2021/03/23 00:55:42;;;;;;;9.93;3.10;;;7.30;99.90;;;;;;5110668;28;20481;-70
2021/03/23 00:58:09;;;;;;;11.77;3.80;;;7.30;99.90;;;;;;5094928;28;20446;-69
2021/03/23 01:00:35;;;;;;;13.47;4.07;;;7.30;99.90;;;;;;5099776;28;20537;-69
2021/03/23 01:03:02;;;;;;;10.40;3.40;;;7.30;99.90;;;;;;5115792;28;20509;-69
2021/03/23 01:05:31;;;;;;;10.60;3.80;;;7.30;99.90;;;;;;5109454;28;20442;-69
2021/03/23 01:08:00;;;;;;;14.23;3.93;;;7.30;99.90;;;;;;5094018;28;20534;-69
2021/03/23 01:10:29;;;;;;;11.27;3.60;;;7.30;99.90;;;;;;5097781;28;20950;-69
2021/03/23 01:12:56;;;;;;;12.90;3.90;;;7.30;99.90;;;;;;5115347;28;20437;-70
2021/03/23 01:15:26;;;;;;;10.70;3.70;;;7.30;99.90;;;;;;5111665;28;20482;-69
2021/03/23 01:17:53;;;;;;;10.60;3.87;;;7.30;99.90;;;;;;5094205;28;20453;-69
2021/03/23 01:20:21;;;;;;;12.20;4.37;;;7.30;99.90;;;;;;5095929;28;20462;-69
2021/03/23 01:22:48;;;;;;;12.13;3.83;;;7.30;99.90;;;;;;5113913;28;20445;-69
2021/03/23 01:25:15;;;;;;;10.30;3.60;;;7.30;99.90;;;;;;5104807;28;20553;-69
2021/03/23 01:27:42;;;;;;;10.40;3.83;;;7.30;99.90;;;;;;5093627;28;20489;-69
2021/03/23 01:30:11;;;;;;;12.40;3.77;;;7.30;99.90;;;;;;5101418;28;20524;-68
2021/03/23 01:32:38;;;;;;;11.10;4.40;;;7.40;99.90;;;;;;5113167;28;20449;-68
2021/03/23 01:35:05;;;;;;;10.07;3.60;;;7.40;99.90;;;;;;5098633;28;20951;-69
2021/03/23 01:37:32;;;;;;;11.20;3.80;;;7.40;99.90;;;;;;5093323;28;20551;-68
2021/03/23 01:39:58;;;;;;;9.83;3.50;;;7.40;99.90;;;;;;5093593;28;20533;-68
2021/03/23 01:42:39;;;;;;;11.30;4.33;;;7.40;99.90;;;;;;5112127;28;20483;-68
2021/03/23 01:45:32;;;;;;;10.80;4.30;;;7.40;99.90;;;;;;5111526;28;20452;-69
2021/03/23 01:48:00;;;;;;;10.80;4.10;;;7.40;99.90;;;;;;5093417;28;20533;-68
2021/03/23 01:50:27;;;;;;;13.03;4.60;;;7.30;99.90;;;;;;5100960;28;20532;-69
2021/03/23 01:53:00;;;;;;;11.57;4.50;;;7.40;99.90;;;;;;5112998;28;20830;-68
2021/03/23 01:55:27;;;;;;;11.40;4.93;;;7.30;99.90;;;;;;5113676;28;20503;-69
2021/03/23 01:57:55;;;;;;;12.70;5.10;;;7.40;99.90;;;;;;5101715;28;20531;-69
2021/03/23 02:00:23;;;;;;;12.60;5.23;;;7.40;99.90;;;;;;5098377;28;20453;-69
2021/03/23 02:02:49;;;;;;;16.07;6.30;;;7.40;99.90;;;;;;5107743;28;20459;-68
2021/03/23 02:05:26;;;;;;;14.80;5.50;;;7.40;99.90;;;;;;5113133;28;20449;-68
2021/03/23 02:07:53;;;;;;;14.43;5.80;;;7.40;99.90;;;;;;5105524;28;20525;-69
2021/03/23 02:10:20;;;;;;;12.43;5.30;;;7.40;99.90;;;;;;5112718;28;20453;-68
2021/03/23 02:12:48;;;;;;;14.37;6.50;;;7.40;99.90;;;;;;5095537;28;20529;-68
2021/03/23 02:15:17;;;;;;;14.63;6.80;;;7.30;99.90;;;;;;5109723;28;20460;-69
2021/03/23 02:17:44;;;;;;;13.30;6.70;;;7.30;99.90;;;;;;5108791;28;20489;-68
2021/03/23 02:20:13;;;;;;;15.77;7.23;;;7.30;99.90;;;;;;5112529;28;20466;-69
2021/03/23 02:22:42;;;;;;;15.50;7.37;;;7.40;99.90;;;;;;5113173;28;20582;-68
2021/03/23 02:25:16;;;;;;;15.47;7.27;;;7.40;99.90;;;;;;5105514;28;20901;-69
2021/03/23 02:27:43;;;;;;;14.53;7.60;;;7.40;99.90;;;;;;5106502;28;20460;-69
2021/03/23 02:30:17;;;;;;;18.20;8.57;;;7.40;99.90;;;;;;5105363;28;20457;-69
2021/03/23 02:32:43;;;;;;;17.87;8.50;;;7.40;99.90;;;;;;5099693;27;20817;-69
2021/03/23 02:35:10;;;;;;;19.57;8.83;;;7.40;99.90;;;;;;5103891;28;20954;-68
2021/03/23 02:37:36;;;;;;;17.03;8.57;;;7.40;99.90;;;;;;5111797;28;20477;-69
2021/03/23 02:40:05;;;;;;;18.27;9.43;;;7.40;99.90;;;;;;5103989;28;20445;-69
2021/03/23 02:42:31;;;;;;;18.33;8.90;;;7.40;99.90;;;;;;5110936;28;20452;-68
2021/03/23 02:44:57;;;;;;;18.70;9.90;;;7.40;99.90;;;;;;5092054;28;20446;-68
2021/03/23 02:47:24;;;;;;;21.73;11.60;;;7.40;99.90;;;;;;5092596;28;20456;-68
2021/03/23 02:49:50;;;;;;;20.77;9.80;;;7.40;99.90;;;;;;5098893;28;20441;-68
2021/03/23 02:52:19;;;;;;;18.70;11.03;;;7.40;99.90;;;;;;5112754;28;20503;-69
2021/03/23 02:54:45;;;;;;;21.23;10.60;;;7.40;99.90;;;;;;5111617;28;21037;-69
2021/03/23 02:57:13;;;;;;;21.80;11.10;;;7.40;99.90;;;;;;5111013;28;20571;-69
2021/03/23 02:59:39;;;;;;;20.33;10.70;;;7.50;99.90;;;;;;5112538;28;20789;-69
2021/03/23 03:02:06;;;;;;;17.70;9.30;;;7.50;99.90;;;;;;5115448;27;20462;-68
2021/03/23 03:04:33;;;;;;;16.80;8.83;;;7.50;99.90;;;;;;5112171;28;20455;-68
2021/03/23 03:06:59;;;;;;;20.77;11.00;;;7.50;99.90;;;;;;5102710;28;20548;-68
2021/03/23 03:09:26;;;;;;;19.17;10.33;;;7.50;99.90;;;;;;5111325;28;20597;-69
2021/03/23 03:11:52;;;;;;;19.73;11.50;;;7.50;99.90;;;;;;5111902;28;20526;-68
2021/03/23 03:14:20;;;;;;;22.20;10.83;;;7.50;99.90;;;;;;5111969;28;20460;-68
2021/03/23 03:16:47;;;;;;;21.80;11.27;;;7.50;99.90;;;;;;5111796;28;20477;-69
2021/03/23 03:19:14;;;;;;;19.37;10.67;;;7.50;99.90;;;;;;5110990;28;20453;-69
2021/03/23 03:21:40;;;;;;;22.50;11.47;;;7.50;99.90;;;;;;5111754;28;20441;-69
2021/03/23 03:24:08;;;;;;;21.67;11.50;;;7.50;99.90;;;;;;5111541;28;20464;-69
2021/03/23 03:26:34;;;;;;;18.27;10.67;;;7.50;99.90;;;;;;5111650;28;20528;-68
2021/03/23 03:29:01;;;;;;;23.80;12.63;;;7.50;99.90;;;;;;5112445;28;20545;-68
2021/03/23 03:31:30;;;;;;;21.87;13.43;;;7.50;99.90;;;;;;5112235;28;20886;-68
2021/03/23 03:33:58;;;;;;;21.67;10.90;;;7.50;99.90;;;;;;5111282;28;20632;-68
2021/03/23 03:36:28;;;;;;;20.03;11.60;;;7.50;99.90;;;;;;5111455;28;20572;-69
2021/03/23 03:38:55;;;;;;;23.73;13.20;;;7.50;99.90;;;;;;5111860;28;20540;-69
2021/03/23 03:41:22;;;;;;;23.90;11.53;;;7.50;99.90;;;;;;5111620;28;20476;-69
2021/03/23 03:43:48;;;;;;;23.70;11.77;;;7.40;99.90;;;;;;5111695;28;20448;-69
2021/03/23 03:46:15;;;;;;;23.27;11.57;;;7.40;99.90;;;;;;5111074;28;20536;-69
2021/03/23 03:48:42;;;;;;;22.00;12.00;;;7.40;99.90;;;;;;5111824;28;22013;-68
2021/03/23 03:51:09;;;;;;;25.27;12.83;;;7.40;99.90;;;;;;5111900;28;20444;-69
2021/03/23 03:53:35;;;;;;;20.60;11.47;;;7.40;99.90;;;;;;5111031;28;20467;-69
2021/03/23 03:56:02;;;;;;;21.43;11.90;;;7.40;99.90;;;;;;5112094;28;20487;-68
2021/03/23 03:58:29;;;;;;;20.13;11.03;;;7.40;99.90;;;;;;5115549;28;20456;-69
2021/03/23 04:00:56;;;;;;;20.47;11.33;;;7.40;99.90;;;;;;5115129;28;20464;-68
2021/03/23 04:03:25;;;;;;;21.33;11.53;;;7.40;99.90;;;;;;5115548;28;20793;-68
2021/03/23 04:05:54;;;;;;;21.93;11.10;;;7.40;99.90;;;;;;5114851;28;20445;-69
2021/03/23 04:08:26;;;;;;;22.53;11.17;;;7.50;99.90;;;;;;5115540;28;20533;-69
2021/03/23 04:10:53;;;;;;;22.60;11.80;;;7.50;99.90;;;;;;5111070;28;20442;-69
2021/03/23 04:13:20;;;;;;;23.40;13.50;;;7.40;99.90;;;;;;5115438;28;20800;-69
2021/03/23 04:15:48;;;;;;;28.43;13.20;;;7.40;99.90;;;;;;5115174;28;20441;-68
2021/03/23 04:18:17;;;;;;;26.40;13.40;;;7.40;99.90;;;;;;5115032;28;20445;-68
2021/03/23 04:20:43;;;;;;;23.03;13.47;;;7.30;99.90;;;;;;5114824;28;20441;-69
2021/03/23 04:23:21;;;;;;;22.60;12.27;;;7.30;99.90;;;;;;5115355;28;20448;-69
2021/03/23 04:25:47;;;;;;;26.40;12.60;;;7.40;99.90;;;;;;5114841;28;20606;-69
2021/03/23 04:28:13;;;;;;;22.33;12.17;;;7.40;99.90;;;;;;5114659;28;20965;-69
2021/03/23 04:30:40;;;;;;;23.17;12.00;;;7.40;99.90;;;;;;5114418;28;20449;-68
2021/03/23 04:33:06;;;;;;;24.30;13.77;;;7.40;99.90;;;;;;5114798;28;20451;-69
2021/03/23 04:35:41;;;;;;;26.43;15.23;;;7.50;99.90;;;;;;5114103;28;20463;-70
2021/03/23 04:38:07;;;;;;;21.57;12.70;;;7.50;99.90;;;;;;5114807;28;20528;-69
2021/03/23 04:40:35;;;;;;;26.40;13.77;;;7.50;99.90;;;;;;5114150;28;20525;-68
2021/03/23 04:43:01;;;;;;;26.47;13.07;;;7.50;99.90;;;;;;5114394;28;20499;-69
2021/03/23 04:45:28;;;;;;;23.80;13.87;;;7.50;99.90;;;;;;5114425;28;21026;-68
2021/03/23 04:47:57;;;;;;;24.50;14.63;;;7.50;99.90;;;;;;5114547;28;20492;-69
2021/03/23 04:50:23;;;;;;;28.60;16.03;;;7.50;99.90;;;;;;5111257;28;20790;-69
2021/03/23 04:52:50;;;;;;;26.07;14.10;;;7.50;99.90;;;;;;5094229;28;21019;-68
2021/03/23 04:55:17;;;;;;;27.27;16.37;;;7.50;99.90;;;;;;5110845;28;20453;-69
2021/03/23 04:57:45;;;;;;;23.57;13.80;;;7.50;99.90;;;;;;5113693;28;20491;-70
2021/03/23 05:00:14;;;;;;;26.60;14.50;;;7.40;99.90;;;;;;5114183;28;20449;-71
2021/03/23 05:02:40;;;;;;;27.10;15.40;;;7.40;99.90;;;;;;5113182;28;20453;-69
2021/03/23 05:05:09;;;;;;;26.70;15.47;;;7.30;99.90;;;;;;5120628;27;20901;-69
2021/03/23 05:07:35;;;;;;;25.27;15.10;;;7.40;99.90;;;;;;5119428;27;20527;-68
2021/03/23 05:10:02;;;;;;;7.67;1.70;;;7.40;99.90;;;;;;5117339;27;21005;-48
2021/03/23 05:12:28;;;;;;;17.67;9.33;;;8.60;99.90;;;;;;5114012;28;20449;-46
2021/03/23 05:14:55;;;;;;;20.93;12.00;;;10.40;99.90;;;;;;5114231;28;20445;-49
2021/03/23 05:17:21;;;;;;;20.93;11.73;;;10.70;99.90;;;;;;5113554;28;20503;-51
2021/03/23 05:19:48;;;;;;;23.20;12.20;;;10.90;99.90;;;;;;5102817;28;20472;-51
2021/03/23 05:22:14;;;;;;;23.60;12.73;;;10.90;99.90;;;;;;5105486;28;20445;-48
2021/03/23 05:24:40;;;;;;;22.30;13.77;;;10.90;99.90;;;;;;5104539;28;20532;-67
2021/03/23 05:27:09;;;;;;;22.80;12.80;;;10.90;99.90;;;;;;5108567;28;20488;-67
2021/03/23 05:29:35;;;;;;;22.53;13.10;;;10.50;99.90;;;;;;5083024;28;20998;-67
2021/03/23 05:32:03;;;;;;;23.00;14.87;;;10.20;99.90;;;;;;5108357;28;20443;-67
2021/03/23 05:34:29;;;;;;;23.70;14.17;;;9.80;99.90;;;;;;5101721;28;20450;-68
2021/03/23 05:36:55;;;;;;;23.83;14.33;;;9.50;99.90;;;;;;5103973;28;20482;-67
2021/03/23 05:39:22;;;;;;;21.80;12.80;;;9.30;99.90;;;;;;5112328;28;20593;-66
2021/03/23 05:41:56;;;;;;;26.87;14.60;;;9.00;99.90;;;;;;5094924;28;20462;-67
2021/03/23 05:44:55;;;;;;;27.03;15.20;;;8.60;99.90;;;;;;5100996;28;20442;-67
2021/03/23 05:47:30;;;;;;;22.53;12.90;;;8.20;99.90;;;;;;5108800;27;20472;-68
2021/03/23 05:50:01;;;;;;;21.47;12.37;;;8.10;99.90;;;;;;5100196;28;20453;-67
2021/03/23 05:52:34;;;;;;;21.97;12.40;;;8.00;99.90;;;;;;5106373;28;20589;-67
2021/03/23 05:55:06;;;;;;;25.20;12.60;;;7.80;99.90;;;;;;5102548;28;20540;-69
2021/03/23 05:57:36;;;;;;;22.70;12.00;;;7.80;99.90;;;;;;5102356;28;21010;-67
2021/03/23 06:00:07;;;;;;;22.20;12.27;;;7.80;99.90;;;;;;5106840;28;20477;-70
2021/03/23 06:02:42;;;;;;;19.83;11.60;;;7.80;99.90;;;;;;5106684;28;20955;-67
2021/03/23 06:05:41;;;;;;;23.57;12.20;;;7.80;99.90;;;;;;5098328;28;20878;-67
2021/03/23 06:08:22;;;;;;;24.83;12.83;;;7.60;99.90;;;;;;5102699;28;20488;-69
2021/03/23 06:10:48;;;;;;;22.50;12.53;;;7.60;99.90;;;;;;5104895;28;20447;-67
2021/03/23 06:13:28;;;;;;;25.07;13.90;;;7.60;99.90;;;;;;5102667;28;20452;-67
2021/03/23 06:16:13;;;;;;;22.80;13.03;;;7.70;99.90;;;;;;5092759;28;20957;-70
2021/03/23 06:18:54;;;;;;;22.67;12.57;;;7.80;99.90;;;;;;5103650;28;20528;-67
2021/03/23 06:21:25;;;;;;;24.37;14.00;;;7.80;99.90;;;;;;5113413;28;20498;-67
2021/03/23 06:24:00;;;;;;;24.23;12.60;;;7.90;99.90;;;;;;5093878;28;20981;-68
2021/03/23 06:26:38;;;;;;;24.37;13.30;;;8.00;99.90;;;;;;5107390;28;20531;-71
2021/03/23 06:29:11;;;;;;;27.13;13.83;;;8.00;99.90;;;;;;5110724;28;20868;-70
2021/03/23 06:32:05;;;;;;;29.17;14.93;;;8.00;99.90;;;;;;5109979;28;20461;-67
2021/03/23 06:34:34;;;;;;;31.07;14.83;;;8.10;99.90;;;;;;5111900;27;20898;-67
2021/03/23 06:37:02;;;;;;;30.00;15.43;;;8.20;99.90;;;;;;5111647;28;20560;-67
2021/03/23 06:39:30;;;;;;;26.60;15.83;;;8.10;99.90;;;;;;5107480;28;20519;-70
2021/03/23 06:41:59;;;;;;;27.23;15.40;;;8.10;99.90;;;;;;5109403;28;20482;-70
2021/03/23 06:44:29;;;;;;;27.77;15.53;;;8.00;99.90;;;;;;5124141;27;20442;-68
2021/03/23 06:46:57;;;;;;;31.30;16.93;;;8.00;99.90;;;;;;5109994;28;20455;-67
2021/03/23 06:49:30;;;;;;;27.87;15.90;;;7.80;99.90;;;;;;5102122;28;20814;-67
2021/03/23 06:52:20;;;;;;;22.80;14.33;;;7.90;99.90;;;;;;5111789;28;20930;-69
2021/03/23 06:55:19;;;;;;;24.23;14.80;;;7.90;99.90;;;;;;5099338;28;20540;-67
2021/03/23 06:57:46;;;;;;;25.93;15.17;;;7.70;99.90;;;;;;5112269;28;20986;-68
2021/03/23 07:00:21;;;;;;;28.83;14.73;;;7.70;99.90;;;;;;5110394;28;20460;-69
2021/03/23 07:02:48;;;;;;;31.13;15.80;;;7.80;99.90;;;;;;5106505;27;20771;-69
2021/03/23 07:05:34;;;;;;;29.67;16.67;;;7.80;99.90;;;;;;5111533;27;20535;-67
2021/03/23 07:08:04;;;;;;;29.27;14.97;;;7.80;99.90;;;;;;5115232;27;20452;-65
2021/03/23 07:10:33;;;;;;;25.80;15.10;;;7.80;99.90;;;;;;5131261;27;20449;-63
2021/03/23 07:13:01;;;;;;;30.00;14.97;;;7.80;99.90;;;;;;5116476;27;20804;-69
2021/03/23 07:15:29;;;;;;;29.47;15.10;;;7.90;99.90;;;;;;5091160;28;20446;-67
2021/03/23 07:17:59;;;;;;;27.10;15.03;;;8.00;99.90;;;;;;5097386;28;20512;-66
2021/03/23 07:20:40;;;;;;;27.10;14.60;;;8.10;99.90;;;;;;5110067;28;20457;-66
2021/03/23 07:23:28;;;;;;;27.50;14.40;;;8.20;99.90;;;;;;5098366;28;20490;-66
2021/03/23 07:25:55;;;;;;;32.90;15.07;;;8.30;99.90;;;;;;5106067;28;20847;-67
2021/03/23 07:28:27;;;;;;;28.00;15.70;;;8.20;99.90;;;;;;5091005;28;20446;-71
2021/03/23 07:31:01;;;;;;;26.43;15.47;;;8.30;99.90;;;;;;5101272;28;20454;-66
2021/03/23 07:33:50;;;;;;;35.50;16.67;;;8.40;99.90;;;;;;5095062;28;20479;-67
2021/03/23 07:36:24;;;;;;;28.43;15.20;;;8.50;99.90;;;;;;5105897;27;20449;-67
2021/03/23 07:38:57;;;;;;;28.47;16.47;;;8.80;99.90;;;;;;5107850;28;21036;-66
2021/03/23 07:41:29;;;;;;;28.73;16.70;;;8.60;99.90;;;;;;5111823;28;20448;-66
2021/03/23 07:44:02;;;;;;;25.17;14.13;;;8.60;99.90;;;;;;5111750;28;20548;-68
2021/03/23 07:46:34;;;;;;;30.40;16.67;;;8.80;99.90;;;;;;5102055;28;20457;-67
2021/03/23 07:49:07;;;;;;;25.53;16.40;;;8.90;99.90;;;;;;5096869;28;20442;-65
2021/03/23 07:51:36;;;;;;;28.87;17.07;;;9.00;99.90;;;;;;5103989;28;20448;-65
2021/03/23 07:54:35;;;;;;;31.77;17.70;;;8.90;99.90;;;;;;5096766;28;20454;-62
2021/03/23 07:57:47;;;;;;;30.50;16.53;;;8.70;99.90;;;;;;5093798;28;20477;-65
2021/03/23 08:00:26;;;;;;;29.37;16.57;;;8.70;99.90;;;;;;5111069;27;20540;-65
2021/03/23 08:03:24;;;;;;;31.87;18.00;;;8.70;99.90;;;;;;5113850;27;20445;-67
2021/03/23 08:05:56;;;;;;;31.73;18.07;;;8.70;99.90;;;;;;5112677;27;20528;-65
2021/03/23 08:08:40;;;;;;;36.17;18.63;;;9.00;99.90;;;;;;5112590;28;20450;-63
2021/03/23 08:11:20;;;;;;;29.60;18.80;;;9.00;99.90;;;;;;5114781;27;20449;-67
2021/03/23 08:14:03;;;;;;;28.07;16.70;;;9.10;99.90;;;;;;5103028;27;20841;-67
2021/03/23 08:17:09;;;;;;;31.50;18.00;;;9.10;99.90;;;;;;5119615;27;20902;-66
2021/03/23 08:20:03;;;;;;;28.37;15.70;;;9.00;99.90;;;;;;5097593;28;20575;-69
2021/03/23 08:22:59;;;;;;;32.70;18.60;;;9.10;99.90;;;;;;5106864;28;20460;-66
2021/03/23 08:25:37;;;;;;;33.00;18.63;;;9.20;99.90;;;;;;5109587;28;20849;-66
2021/03/23 08:28:33;;;;;;;35.23;19.30;;;9.40;99.90;;;;;;5108403;28;20481;-66
2021/03/23 08:31:12;;;;;;;33.87;17.40;;;9.40;99.90;;;;;;5102738;28;20981;-66
2021/03/23 08:33:59;;;;;;;30.97;18.07;;;9.70;99.90;;;;;;5109983;28;20457;-65
2021/03/23 08:36:37;;;;;;;33.63;18.60;;;10.10;99.90;;;;;;5112753;27;20576;-62
2021/03/23 08:39:20;;;;;;;33.33;19.07;;;10.30;99.90;;;;;;5104329;28;20472;-67
2021/03/23 08:41:57;;;;;;;34.23;19.63;;;10.10;99.90;;;;;;5102747;28;20442;-67
2021/03/23 08:44:30;;;;;;;32.27;18.30;;;10.00;99.90;;;;;;5109785;27;20450;-66
2021/03/23 08:47:00;;;;;;;28.97;18.03;;;10.00;99.90;;;;;;5109342;27;20458;-66
2021/03/23 08:49:27;;;;;;;29.40;18.63;;;10.20;99.90;;;;;;5098017;28;20477;-70
2021/03/23 08:51:53;;;;;;;32.03;18.43;;;10.50;99.90;;;;;;5113437;27;20449;-68
2021/03/23 08:54:45;;;;;;;29.03;18.93;;;10.60;99.90;;;;;;5100965;28;20468;-66
2021/03/23 08:57:12;;;;;;;34.10;19.30;;;10.80;99.90;;;;;;5095852;28;21033;-67
2021/03/23 08:59:56;;;;;;;33.10;18.87;;;11.20;99.90;;;;;;5113200;28;20950;-68
2021/03/23 09:02:48;;;;;;;35.53;21.30;;;12.20;99.90;;;;;;5091844;28;21007;-65
2021/03/23 09:05:37;;;;;;;31.23;18.03;;;12.20;99.90;;;;;;5104323;28;20936;-67
2021/03/23 09:08:40;;;;;;;29.67;20.23;;;12.30;99.90;;;;;;5104328;28;20461;-67
2021/03/23 09:11:25;;;;;;;28.43;18.70;;;12.50;99.90;;;;;;5110388;28;20570;-66
2021/03/23 09:14:16;;;;;;;31.60;19.97;;;13.10;99.90;;;;;;5080830;28;20510;-68
2021/03/23 09:16:47;;;;;;;27.80;18.03;;;14.10;99.90;;;;;;5110512;28;20526;-72
2021/03/23 09:19:31;;;;;;;32.93;21.70;;;14.70;99.90;;;;;;5109104;28;20758;-66
2021/03/23 09:22:40;;;;;;;34.23;20.87;;;15.60;99.90;;;;;;5108868;28;20453;-69
2021/03/23 09:25:49;;;;;;;27.80;19.77;;;16.70;99.90;;;;;;5088368;28;20453;-65
2021/03/23 09:28:51;;;;;;;30.37;20.27;;;16.90;99.90;;;;;;5110409;28;20460;-65
2021/03/23 09:31:37;;;;;;;33.50;20.63;;;17.30;99.90;;;;;;5108178;28;20440;-65
2021/03/23 09:34:41;;;;;;;33.00;21.57;;;18.40;99.90;;;;;;5109285;28;20449;-65
2021/03/23 09:37:30;;;;;;;23.27;19.53;;;19.60;99.90;;;;;;5104453;28;20567;-65
2021/03/23 09:39:57;;;;;;;26.03;17.30;;;20.40;99.90;;;;;;5095014;28;20821;-49
2021/03/23 09:42:41;;;;;;;31.90;23.10;;;21.10;99.90;;;;;;5100502;27;20474;-53
2021/03/23 09:45:33;;;;;;;25.83;18.70;;;20.30;96.90;;;;;;5108515;27;20455;-51
2021/03/23 09:48:03;;;;;;;30.43;21.03;;;21.20;97.00;;;;;;5098498;28;20461;-51
2021/03/23 09:50:42;;;;;;;27.67;19.43;;;19.50;95.70;;;;;;5109306;28;20445;-54
2021/03/23 09:53:22;;;;;;;23.33;19.70;;;20.30;97.70;;;;;;5104708;28;20438;-63
2021/03/23 09:55:49;;;;;;;29.00;20.90;;;22.60;96.20;;;;;;5111254;28;20200;-65
2021/03/23 09:58:22;;;;;;;29.97;19.93;;;20.80;92.20;;;;;;5109394;28;20477;-63
2021/03/23 10:00:49;;;;;;;29.00;19.33;;;20.30;92.40;;;;;;5100022;27;20913;-66
2021/03/23 10:03:33;;;;;;;27.07;18.80;;;18.80;93.80;;;;;;5118846;27;20601;-68
2021/03/23 10:06:02;;;;;;;22.87;17.20;;;19.10;94.60;;;;;;5102991;28;20934;-67
2021/03/23 10:08:32;;;;;;;29.43;19.23;;;19.00;93.90;;;;;;5107699;28;20445;-63
2021/03/23 10:11:11;;;;;;;24.53;17.80;;;19.40;94.30;;;;;;5110954;28;20453;-65
2021/03/23 10:13:38;;;;;;;22.87;15.73;;;20.30;92.60;;;;;;5110772;28;20441;-69
2021/03/23 10:16:08;;;;;;;21.43;15.97;;;20.50;91.40;;;;;;5108864;28;20453;-64
2021/03/23 10:18:40;;;;;;;25.70;16.27;;;20.10;91.20;;;;;;5100657;28;20565;-68
2021/03/23 10:21:10;;;;;;;22.53;15.40;;;20.30;91.10;;;;;;5108108;28;20450;-66
2021/03/23 10:23:45;;;;;;;20.73;15.17;;;20.10;89.80;;;;;;5105885;28;20892;-67
2021/03/23 10:26:11;;;;;;;22.33;16.00;;;20.60;90.70;;;;;;5105657;28;20441;-68
2021/03/23 10:28:40;;;;;;;22.00;14.93;;;20.20;90.50;;;;;;5108802;28;20456;-68
2021/03/23 10:31:08;;;;;;;24.27;15.10;;;21.10;91.80;;;;;;5107113;28;20540;-68
2021/03/23 10:33:37;;;;;;;20.30;15.10;;;21.70;90.00;;;;;;5092798;28;20442;-66
2021/03/23 10:36:06;;;;;;;19.10;14.87;;;22.70;84.80;;;;;;5106331;28;20446;-63
2021/03/23 10:38:41;;;;;;;18.70;14.40;;;23.80;84.60;;;;;;5097496;28;20568;-67
2021/03/23 10:41:35;;;;;;;23.20;15.80;;;23.60;80.60;;;;;;5107557;28;20457;-68
2021/03/23 10:44:21;;;;;;;20.67;16.50;;;25.00;82.80;;;;;;5103630;28;20481;-64
2021/03/23 10:46:49;;;;;;;20.57;16.37;;;24.10;75.20;;;;;;5093542;28;21016;-68
2021/03/23 10:49:23;;;;;;;22.17;15.97;;;24.60;74.90;;;;;;5090273;28;20481;-66
2021/03/23 10:51:53;;;;;;;17.10;15.30;;;26.60;69.90;;;;;;5101155;28;20449;-67
2021/03/23 10:54:23;;;;;;;18.30;14.90;;;26.00;67.30;;;;;;5100228;28;20464;-65
2021/03/23 10:56:52;;;;;;;23.00;16.47;;;26.00;65.20;;;;;;5103932;28;20560;-65
2021/03/23 10:59:30;;;;;;;25.80;16.70;;;23.70;66.00;;;;;;5110730;28;20552;-71
2021/03/23 11:02:00;;;;;;;20.67;15.43;;;23.20;67.30;;;;;;5101661;28;20855;-69
2021/03/23 11:04:27;;;;;;;18.93;16.50;;;23.40;70.10;;;;;;5105702;28;20822;-68
2021/03/23 11:06:54;;;;;;;22.90;14.63;;;23.00;69.70;;;;;;5109252;28;20906;-68
2021/03/23 11:09:21;;;;;;;22.13;16.63;;;23.60;69.20;;;;;;5110027;28;20449;-68
2021/03/23 11:11:49;;;;;;;18.57;16.03;;;24.80;68.60;;;;;;5095344;28;20457;-65
2021/03/23 11:14:17;;;;;;;19.10;16.17;;;24.60;68.20;;;;;;5107644;28;20510;-64
2021/03/23 11:16:48;;;;;;;20.13;16.50;;;24.10;66.00;;;;;;5097795;28;20815;-69
2021/03/23 11:19:27;;;;;;;18.63;14.40;;;23.60;66.50;;;;;;5110851;28;20449;-65
2021/03/23 11:21:56;;;;;;;19.50;15.30;;;22.60;70.70;;;;;;5109635;28;20448;-67
2021/03/23 11:24:25;;;;;;;18.80;14.40;;;23.90;67.80;;;;;;5091582;28;20461;-65
2021/03/23 11:26:53;;;;;;;19.93;14.93;;;24.60;67.20;;;;;;5105120;28;20460;-63
2021/03/23 11:29:20;;;;;;;20.30;15.93;;;25.00;68.90;;;;;;5104789;28;20476;-65
2021/03/23 11:31:47;;;;;;;21.37;16.60;;;25.00;64.00;;;;;;5103534;28;20502;-70
2021/03/23 11:34:13;;;;;;;25.17;16.73;;;23.50;64.00;;;;;;5107075;28;20441;-65
2021/03/23 11:36:40;;;;;;;24.97;17.50;;;21.80;67.20;;;;;;5109566;28;20517;-63
2021/03/23 11:39:08;;;;;;;23.63;15.93;;;21.10;69.00;;;;;;5111651;28;20528;-61
2021/03/23 11:41:38;;;;;;;22.30;15.53;;;20.60;71.70;;;;;;5113792;28;20482;-63
2021/03/23 11:44:07;;;;;;;20.10;14.73;;;19.60;70.70;;;;;;5108745;28;20481;-64
2021/03/23 11:46:51;;;;;;;20.10;17.27;;;20.60;72.50;;;;;;5102947;28;21006;-66
2021/03/23 11:49:25;;;;;;;23.20;15.23;;;21.90;69.50;;;;;;5104912;28;20498;-67
2021/03/23 11:51:53;;;;;;;19.73;15.60;;;22.70;70.70;;;;;;5103164;28;20471;-65
2021/03/23 11:54:20;;;;;;;23.90;15.63;;;22.00;68.60;;;;;;5106582;28;20449;-64
2021/03/23 11:56:47;;;;;;;18.47;15.20;;;21.00;68.10;;;;;;5101309;28;20549;-61
2021/03/23 11:59:14;;;;;;;25.93;16.10;;;19.80;68.70;;;;;;5109482;28;20484;-60
2021/03/23 12:01:41;;;;;;;19.83;15.70;;;19.50;72.30;;;;;;5105122;28;21003;-63
2021/03/23 12:04:09;;;;;;;21.53;15.10;;;19.60;72.00;;;;;;5109780;28;20449;-67
2021/03/23 12:06:42;;;;;;;20.80;15.93;;;19.10;72.80;;;;;;5109514;28;20880;-67
2021/03/23 12:09:15;;;;;;;18.80;15.37;;;19.30;75.30;;;;;;5102722;28;20449;-63
2021/03/23 12:11:51;;;;;;;22.57;16.00;;;20.00;72.70;;;;;;5099987;28;20586;-65
2021/03/23 12:14:28;;;;;;;18.17;13.93;;;19.80;72.40;;;;;;5109909;28;20528;-61
2021/03/23 12:17:02;;;;;;;18.97;14.20;;;19.70;76.30;;;;;;5091594;28;20487;-66
2021/03/23 12:19:33;;;;;;;21.73;15.73;;;20.70;72.40;;;;;;5094129;28;20807;-61
2021/03/23 12:21:59;;;;;;;20.40;15.33;;;20.00;72.40;;;;;;5112769;28;20528;-64
2021/03/23 12:24:26;;;;;;;18.57;14.47;;;19.40;73.30;;;;;;5113122;28;20962;-65
2021/03/23 12:26:53;;;;;;;19.00;14.60;;;19.30;73.20;;;;;;5113723;28;20523;-63
2021/03/23 12:29:20;;;;;;;19.10;14.40;;;18.00;75.70;;;;;;5110267;28;20546;-64
2021/03/23 12:31:47;;;;;;;22.60;16.10;;;17.60;76.50;;;;;;5111859;28;20534;-64
2021/03/23 12:34:14;;;;;;;19.63;15.40;;;17.40;78.80;;;;;;5109784;28;20452;-63
2021/03/23 12:36:42;;;;;;;20.57;16.30;;;17.20;78.80;;;;;;5112648;28;20458;-65
2021/03/23 12:39:09;;;;;;;20.63;15.57;;;17.00;79.00;;;;;;5108986;28;20449;-66
2021/03/23 12:41:38;;;;;;;22.67;16.40;;;17.30;82.30;;;;;;5106852;28;20454;-66
2021/03/23 12:44:07;;;;;;;18.60;14.30;;;17.10;81.80;;;;;;5110745;28;20919;-65
2021/03/23 12:46:34;;;;;;;27.60;16.27;;;16.90;81.80;;;;;;5113037;28;20448;-64
2021/03/23 12:49:01;;;;;;;21.43;15.90;;;17.30;84.20;;;;;;5107377;28;20765;-66
2021/03/23 12:51:36;;;;;;;22.70;16.70;;;18.30;81.60;;;;;;5110155;28;20524;-65
2021/03/23 12:54:02;;;;;;;21.40;15.90;;;17.90;78.80;;;;;;5112347;28;20497;-67
2021/03/23 12:56:29;;;;;;;23.90;16.67;;;18.60;80.20;;;;;;5102766;28;20450;-66
2021/03/23 12:58:55;;;;;;;20.03;15.83;;;19.30;80.10;;;;;;5100971;28;20575;-65
2021/03/23 13:01:21;;;;;;;18.70;14.57;;;19.10;77.70;;;;;;5105458;27;20856;-64